Detroit, Alabama
Current Conditions -  °F | °C
As of 2:15 PM on Sunday 25 Jan 2015 (Local Time) from KM40 Reporting Station
Broken Clouds Broken Clouds  
Wind Chill: 63°   Ceiling: 6000
Heat Index: 63°   Visibility: 10mi
Dew Point: 46°   Wind: 15mph
Humidity: 55%   Direction: 230°SW
Pressure: 29.71"   Gusts: 22mph
Location:  34.03°N, 88.17°W
Report Text: KM40 252015Z AUTO 23013G19KT 10SM BKN060 17/08 A2971 RMK AO2
Loading
Personal Weather Stations






























Interactive Weather Map New forecast layout! Learn more

10-Day Weather Forecast

Advertisements
Track Severe Weather on mobile